createdAt,value
2023-05-21T00:00:23.670Z,26.80
2023-05-21T00:02:54.425Z,27.00
2023-05-21T00:05:26.956Z,27.00
2023-05-21T00:07:57.717Z,27.10
2023-05-21T00:10:28.733Z,27.10
2023-05-21T00:13:01.478Z,27.00
2023-05-21T00:15:32.308Z,27.10
2023-05-21T00:18:03.584Z,27.00
2023-05-21T00:20:37.221Z,26.80
2023-05-21T00:23:08.046Z,26.70
2023-05-21T00:25:38.792Z,26.70
2023-05-21T00:28:09.512Z,26.50
2023-05-21T00:30:40.662Z,26.40
2023-05-21T00:33:14.905Z,26.30
2023-05-21T00:35:47.299Z,26.20
2023-05-21T00:38:18.754Z,26.00
2023-05-21T00:40:49.564Z,25.90
2023-05-21T00:43:20.444Z,26.00
2023-05-21T00:45:51.184Z,26.10
2023-05-21T00:48:22.523Z,26.00
2023-05-21T00:50:55.607Z,25.80
2023-05-21T00:53:26.506Z,25.90
2023-05-21T00:55:57.361Z,26.40
2023-05-21T00:58:28.390Z,26.80
2023-05-21T01:00:59.460Z,27.20
2023-05-21T01:03:30.481Z,26.80
2023-05-21T01:06:04.241Z,27.10
2023-05-21T01:08:36.203Z,27.00
2023-05-21T01:11:07.982Z,26.90
2023-05-21T01:13:41.876Z,26.70
2023-05-21T01:16:14.445Z,26.20
2023-05-21T01:18:47.621Z,26.50
2023-05-21T01:21:21.364Z,27.00
2023-05-21T01:23:54.308Z,27.20
2023-05-21T01:26:26.858Z,27.40
2023-05-21T01:28:57.813Z,27.50
2023-05-21T01:31:33.708Z,27.80
2023-05-21T01:34:08.241Z,28.30
2023-05-21T01:36:45.839Z,28.50
2023-05-21T01:39:23.691Z,28.60
2023-05-21T01:41:57.775Z,28.40
2023-05-21T01:44:29.948Z,28.20
2023-05-21T01:47:01.964Z,27.80
2023-05-21T01:49:33.189Z,27.40
2023-05-21T01:52:04.386Z,26.80
2023-05-21T01:54:37.016Z,26.60
2023-05-21T01:57:08.097Z,26.20
2023-05-21T01:59:39.681Z,25.80
2023-05-21T02:02:10.616Z,25.20
2023-05-21T02:04:42.845Z,24.80
2023-05-21T02:07:15.200Z,24.50
2023-05-21T02:09:48.014Z,24.40
2023-05-21T02:12:18.863Z,24.20
2023-05-21T02:14:51.237Z,23.90
2023-05-21T02:17:22.684Z,23.70
2023-05-21T02:19:53.552Z,23.50
2023-05-21T02:22:24.329Z,23.40
2023-05-21T02:24:56.697Z,23.10
2023-05-21T02:27:28.129Z,23.00
2023-05-21T02:29:58.856Z,22.90
2023-05-21T02:32:29.623Z,22.80
2023-05-21T02:35:00.968Z,22.80
2023-05-21T02:37:34.708Z,22.70
2023-05-21T02:40:11.192Z,22.60
2023-05-21T02:42:45.805Z,22.60
2023-05-21T02:45:17.079Z,22.50
2023-05-21T02:47:48.944Z,22.30
2023-05-21T02:50:20.040Z,22.30
2023-05-21T02:52:51.380Z,22.20
2023-05-21T02:55:25.312Z,22.10
2023-05-21T02:57:57.049Z,22.10
2023-05-21T03:00:28.931Z,22.00
2023-05-21T03:03:00.070Z,21.90
2023-05-21T03:05:32.528Z,21.80
2023-05-21T03:08:14.948Z,21.70
2023-05-21T03:10:51.905Z,21.60
2023-05-21T03:13:25.222Z,21.50
2023-05-21T03:18:34.335Z,21.30
2023-05-21T03:23:43.323Z,21.00
2023-05-21T03:26:21.879Z,20.90
2023-05-21T03:28:56.319Z,20.70
2023-05-21T03:31:30.260Z,20.70
2023-05-21T03:34:05.246Z,20.60
2023-05-21T03:36:36.995Z,20.50
2023-05-21T03:40:10.900Z,20.50
2023-05-21T03:42:45.885Z,20.40
2023-05-21T03:45:19.070Z,20.30
2023-05-21T03:47:52.322Z,20.20
2023-05-21T03:50:41.289Z,20.10
2023-05-21T03:53:14.587Z,20.00
2023-05-21T04:01:47.052Z,19.60
2023-05-21T04:04:19.447Z,19.60
2023-05-21T04:06:55.336Z,19.50
2023-05-21T04:15:07.858Z,19.20
2023-05-21T04:20:18.742Z,19.00
2023-05-21T04:22:52.009Z,18.90
2023-05-21T04:25:25.045Z,18.90
2023-05-21T04:27:56.858Z,18.90
2023-05-21T04:30:32.496Z,18.90
2023-05-21T04:33:04.077Z,18.80
2023-05-21T04:35:36.842Z,18.80
2023-05-21T04:38:10.155Z,18.70
2023-05-21T04:40:45.399Z,18.60
2023-05-21T04:56:43.562Z,18.20
2023-05-21T05:23:34.652Z,17.30
2023-05-21T05:26:09.646Z,17.30
2023-05-21T21:25:40.037Z,15.30
2023-05-21T21:28:12.174Z,15.60
2023-05-21T21:30:46.012Z,15.40
2023-05-21T21:33:19.328Z,15.30
2023-05-21T21:35:51.344Z,15.70
2023-05-21T21:38:22.812Z,15.90
2023-05-21T21:40:56.218Z,16.10
2023-05-21T21:43:26.988Z,16.20
2023-05-21T21:45:58.225Z,16.40
2023-05-21T21:48:29.632Z,16.00
2023-05-21T21:51:01.576Z,16.40
2023-05-21T21:53:32.269Z,16.60
2023-05-21T21:56:04.671Z,16.70
2023-05-21T21:58:35.382Z,16.90
2023-05-21T22:01:06.460Z,16.80
2023-05-21T22:03:37.897Z,17.00
2023-05-21T22:06:10.319Z,17.10
2023-05-21T22:08:41.738Z,16.80
2023-05-21T22:11:15.311Z,16.70
2023-05-21T22:13:46.704Z,16.10
2023-05-21T22:16:18.581Z,15.60
2023-05-21T22:18:51.106Z,15.50
2023-05-21T22:21:28.021Z,15.50
2023-05-21T22:23:59.747Z,15.60
2023-05-21T22:26:35.647Z,15.60
2023-05-21T22:29:06.599Z,15.60
2023-05-21T22:31:37.768Z,15.60
2023-05-21T22:34:08.832Z,15.60
2023-05-21T22:36:41.406Z,15.70
2023-05-21T22:39:12.386Z,15.50
2023-05-21T22:41:45.743Z,15.60
2023-05-21T22:44:17.236Z,15.70
2023-05-21T22:46:48.556Z,15.60
2023-05-21T22:49:20.553Z,15.40
2023-05-21T22:51:53.497Z,15.10
2023-05-21T22:54:25.157Z,15.20
2023-05-21T22:56:58.270Z,15.20
2023-05-21T22:59:29.739Z,15.30
2023-05-21T23:02:02.426Z,15.10
2023-05-21T23:04:43.736Z,15.30
2023-05-21T23:07:16.502Z,15.30
2023-05-21T23:09:47.868Z,15.30
2023-05-21T23:12:21.230Z,15.20
2023-05-21T23:14:52.736Z,15.30
2023-05-21T23:17:24.762Z,15.10
2023-05-21T23:19:55.508Z,15.20
2023-05-21T23:25:11.440Z,15.40
2023-05-21T23:27:44.891Z,15.40
2023-05-21T23:30:16.522Z,15.50
2023-05-21T23:32:57.014Z,15.40
2023-05-21T23:35:27.847Z,15.40
2023-05-21T23:37:58.955Z,15.40
2023-05-21T23:40:30.632Z,15.20
2023-05-21T23:43:03.622Z,15.20
2023-05-21T23:45:34.746Z,15.30
2023-05-21T23:48:06.121Z,15.40
2023-05-21T23:50:37.893Z,15.30
2023-05-21T23:53:09.579Z,15.30
2023-05-21T23:55:40.991Z,15.30
2023-05-21T23:58:14.987Z,15.20
